sensor_id;sensor_type;location;lat;lon;timestamp;P1;durP1;ratioP1;P2;durP2;ratioP2
86116;SDS011;76770;0.000;0.000;2024-03-23T00:53:14;4.68;;;3.00;;
86116;SDS011;76770;0.000;0.000;2024-03-23T00:55:41;5.07;;;3.08;;
86116;SDS011;76770;0.000;0.000;2024-03-23T00:58:07;5.22;;;3.00;;
86116;SDS011;76770;0.000;0.000;2024-03-23T01:00:33;4.80;;;2.97;;
86116;SDS011;76770;0.000;0.000;2024-03-23T01:02:59;4.20;;;2.80;;
86116;SDS011;76770;0.000;0.000;2024-03-23T01:05:25;4.33;;;2.83;;
86116;SDS011;76770;0.000;0.000;2024-03-23T01:07:51;4.40;;;2.95;;
86116;SDS011;76770;0.000;0.000;2024-03-23T01:10:17;4.40;;;2.90;;
86116;SDS011;76770;0.000;0.000;2024-03-23T01:12:43;4.28;;;2.85;;
86116;SDS011;76770;0.000;0.000;2024-03-23T01:15:09;5.22;;;3.00;;
86116;SDS011;76770;0.000;0.000;2024-03-23T01:17:35;3.67;;;2.80;;
86116;SDS011;76770;0.000;0.000;2024-03-23T01:20:01;4.68;;;2.80;;
86116;SDS011;76770;0.000;0.000;2024-03-23T01:22:27;4.38;;;2.90;;
86116;SDS011;76770;0.000;0.000;2024-03-23T01:24:53;4.70;;;3.00;;
86116;SDS011;76770;0.000;0.000;2024-03-23T01:27:19;3.63;;;2.60;;
86116;SDS011;76770;0.000;0.000;2024-03-23T01:29:45;4.25;;;2.75;;
86116;SDS011;76770;0.000;0.000;2024-03-23T01:32:12;4.47;;;2.93;;
86116;SDS011;76770;0.000;0.000;2024-03-23T01:34:38;4.35;;;2.70;;
86116;SDS011;76770;0.000;0.000;2024-03-23T01:37:04;4.15;;;2.60;;
86116;SDS011;76770;0.000;0.000;2024-03-23T01:39:30;3.97;;;2.60;;
86116;SDS011;76770;0.000;0.000;2024-03-23T01:41:56;4.60;;;2.80;;
86116;SDS011;76770;0.000;0.000;2024-03-23T01:44:22;4.10;;;2.72;;
86116;SDS011;76770;0.000;0.000;2024-03-23T01:46:48;3.72;;;2.45;;
86116;SDS011;76770;0.000;0.000;2024-03-23T01:49:14;4.20;;;2.70;;
86116;SDS011;76770;0.000;0.000;2024-03-23T01:51:41;4.65;;;2.80;;
86116;SDS011;76770;0.000;0.000;2024-03-23T01:54:07;3.53;;;2.60;;
86116;SDS011;76770;0.000;0.000;2024-03-23T01:56:33;3.88;;;2.50;;
86116;SDS011;76770;0.000;0.000;2024-03-23T01:59:00;3.75;;;2.70;;
86116;SDS011;76770;0.000;0.000;2024-03-23T02:01:26;4.25;;;2.63;;
86116;SDS011;76770;0.000;0.000;2024-03-23T02:03:52;4.13;;;2.70;;
86116;SDS011;76770;0.000;0.000;2024-03-23T02:06:18;3.50;;;2.53;;
86116;SDS011;76770;0.000;0.000;2024-03-23T02:08:44;4.33;;;2.60;;
86116;SDS011;76770;0.000;0.000;2024-03-23T02:11:10;3.63;;;2.60;;
86116;SDS011;76770;0.000;0.000;2024-03-23T02:13:36;4.57;;;2.60;;
86116;SDS011;76770;0.000;0.000;2024-03-23T02:16:02;3.65;;;2.60;;
86116;SDS011;76770;0.000;0.000;2024-03-23T02:18:30;3.58;;;2.55;;
86116;SDS011;76770;0.000;0.000;2024-03-23T02:20:56;4.35;;;2.75;;
86116;SDS011;76770;0.000;0.000;2024-03-23T02:23:22;3.60;;;2.63;;
86116;SDS011;76770;0.000;0.000;2024-03-23T02:25:49;3.28;;;2.47;;
86116;SDS011;76770;0.000;0.000;2024-03-23T02:28:15;3.80;;;2.40;;
86116;SDS011;76770;0.000;0.000;2024-03-23T02:30:42;3.85;;;2.40;;
86116;SDS011;76770;0.000;0.000;2024-03-23T02:33:08;4.20;;;2.50;;
86116;SDS011;76770;0.000;0.000;2024-03-23T02:35:34;3.47;;;2.20;;
86116;SDS011;76770;0.000;0.000;2024-03-23T02:38:00;3.70;;;2.50;;
86116;SDS011;76770;0.000;0.000;2024-03-23T02:40:27;3.25;;;2.20;;
86116;SDS011;76770;0.000;0.000;2024-03-23T02:42:53;3.38;;;2.38;;
86116;SDS011;76770;0.000;0.000;2024-03-23T02:45:19;3.30;;;2.30;;
86116;SDS011;76770;0.000;0.000;2024-03-23T02:47:45;3.08;;;2.20;;
86116;SDS011;76770;0.000;0.000;2024-03-23T02:50:11;3.47;;;2.40;;
86116;SDS011;76770;0.000;0.000;2024-03-23T02:52:37;3.30;;;2.30;;
86116;SDS011;76770;0.000;0.000;2024-03-23T02:55:03;3.10;;;2.05;;
86116;SDS011;76770;0.000;0.000;2024-03-23T02:57:30;3.80;;;2.20;;
86116;SDS011;76770;0.000;0.000;2024-03-23T02:59:56;3.08;;;2.22;;
86116;SDS011;76770;0.000;0.000;2024-03-23T03:02:22;4.23;;;2.40;;
86116;SDS011;76770;0.000;0.000;2024-03-23T03:04:48;3.25;;;2.20;;
86116;SDS011;76770;0.000;0.000;2024-03-23T03:07:14;3.30;;;2.20;;
86116;SDS011;76770;0.000;0.000;2024-03-23T03:09:40;3.10;;;2.30;;
86116;SDS011;76770;0.000;0.000;2024-03-23T03:12:06;3.30;;;2.30;;
86116;SDS011;76770;0.000;0.000;2024-03-23T03:14:32;2.92;;;2.20;;
86116;SDS011;76770;0.000;0.000;2024-03-23T03:16:58;3.50;;;2.40;;
86116;SDS011;76770;0.000;0.000;2024-03-23T03:19:24;2.83;;;2.05;;
86116;SDS011;76770;0.000;0.000;2024-03-23T03:21:50;3.38;;;2.22;;
86116;SDS011;76770;0.000;0.000;2024-03-23T03:24:16;2.90;;;2.10;;
86116;SDS011;76770;0.000;0.000;2024-03-23T03:26:42;3.15;;;2.20;;
86116;SDS011;76770;0.000;0.000;2024-03-23T03:29:08;3.47;;;2.15;;
86116;SDS011;76770;0.000;0.000;2024-03-23T03:31:35;3.10;;;2.35;;
86116;SDS011;76770;0.000;0.000;2024-03-23T03:34:01;2.80;;;2.00;;
86116;SDS011;76770;0.000;0.000;2024-03-23T03:36:27;2.97;;;2.05;;
86116;SDS011;76770;0.000;0.000;2024-03-23T03:38:53;2.97;;;2.00;;
86116;SDS011;76770;0.000;0.000;2024-03-23T03:41:19;3.17;;;2.20;;
86116;SDS011;76770;0.000;0.000;2024-03-23T03:43:45;3.45;;;2.20;;
86116;SDS011;76770;0.000;0.000;2024-03-23T03:46:11;2.78;;;1.95;;
86116;SDS011;76770;0.000;0.000;2024-03-23T03:48:37;2.80;;;2.03;;
86116;SDS011;76770;0.000;0.000;2024-03-23T03:51:03;2.97;;;2.03;;
86116;SDS011;76770;0.000;0.000;2024-03-23T03:53:30;2.88;;;2.17;;
86116;SDS011;76770;0.000;0.000;2024-03-23T03:55:56;2.60;;;1.90;;
86116;SDS011;76770;0.000;0.000;2024-03-23T03:58:22;2.60;;;2.00;;
86116;SDS011;76770;0.000;0.000;2024-03-23T04:00:48;2.40;;;1.70;;
86116;SDS011;76770;0.000;0.000;2024-03-23T04:03:14;2.57;;;1.90;;
86116;SDS011;76770;0.000;0.000;2024-03-23T04:05:40;3.17;;;2.00;;
86116;SDS011;76770;0.000;0.000;2024-03-23T04:08:07;2.83;;;1.95;;
86116;SDS011;76770;0.000;0.000;2024-03-23T04:10:33;2.72;;;2.00;;
86116;SDS011;76770;0.000;0.000;2024-03-23T04:12:59;3.25;;;1.90;;
86116;SDS011;76770;0.000;0.000;2024-03-23T04:15:26;2.95;;;2.03;;
86116;SDS011;76770;0.000;0.000;2024-03-23T04:17:52;3.43;;;2.00;;
86116;SDS011;76770;0.000;0.000;2024-03-23T04:20:18;2.90;;;1.90;;
86116;SDS011;76770;0.000;0.000;2024-03-23T04:22:44;2.50;;;1.90;;
86116;SDS011;76770;0.000;0.000;2024-03-23T04:25:10;2.65;;;1.88;;
86116;SDS011;76770;0.000;0.000;2024-03-23T04:27:36;2.67;;;1.90;;
86116;SDS011;76770;0.000;0.000;2024-03-23T04:30:02;3.00;;;2.00;;
86116;SDS011;76770;0.000;0.000;2024-03-23T04:32:35;2.78;;;1.92;;
86116;SDS011;76770;0.000;0.000;2024-03-23T04:35:00;3.00;;;1.88;;
86116;SDS011;76770;0.000;0.000;2024-03-23T04:37:28;2.63;;;2.00;;
86116;SDS011;76770;0.000;0.000;2024-03-23T04:39:54;2.45;;;1.80;;
86116;SDS011;76770;0.000;0.000;2024-03-23T04:42:20;2.80;;;2.00;;
86116;SDS011;76770;0.000;0.000;2024-03-23T04:44:46;2.60;;;1.83;;
86116;SDS011;76770;0.000;0.000;2024-03-23T04:47:12;2.85;;;1.70;;
86116;SDS011;76770;0.000;0.000;2024-03-23T04:49:38;2.65;;;1.85;;
86116;SDS011;76770;0.000;0.000;2024-03-23T04:52:04;2.42;;;1.70;;
86116;SDS011;76770;0.000;0.000;2024-03-23T04:54:30;2.20;;;1.70;;
86116;SDS011;76770;0.000;0.000;2024-03-23T04:56:59;3.00;;;1.70;;
86116;SDS011;76770;0.000;0.000;2024-03-23T04:59:25;2.47;;;1.77;;
86116;SDS011;76770;0.000;0.000;2024-03-23T05:01:51;2.60;;;1.80;;
86116;SDS011;76770;0.000;0.000;2024-03-23T05:04:17;2.30;;;1.77;;
86116;SDS011;76770;0.000;0.000;2024-03-23T05:06:43;2.47;;;1.70;;
86116;SDS011;76770;0.000;0.000;2024-03-23T05:09:09;2.27;;;1.70;;
86116;SDS011;76770;0.000;0.000;2024-03-23T05:11:39;2.30;;;1.75;;
86116;SDS011;76770;0.000;0.000;2024-03-23T05:14:06;2.35;;;1.65;;
86116;SDS011;76770;0.000;0.000;2024-03-23T05:16:32;2.30;;;1.63;;
86116;SDS011;76770;0.000;0.000;2024-03-23T05:18:59;2.40;;;1.70;;
86116;SDS011;76770;0.000;0.000;2024-03-23T05:21:25;2.47;;;1.75;;
86116;SDS011;76770;0.000;0.000;2024-03-23T05:23:51;2.20;;;1.60;;
86116;SDS011;76770;0.000;0.000;2024-03-23T05:26:19;2.30;;;1.60;;
86116;SDS011;76770;0.000;0.000;2024-03-23T05:28:45;2.50;;;1.63;;
86116;SDS011;76770;0.000;0.000;2024-03-23T05:31:11;2.03;;;1.50;;
86116;SDS011;76770;0.000;0.000;2024-03-23T05:33:37;2.83;;;1.95;;
86116;SDS011;76770;0.000;0.000;2024-03-23T05:36:03;2.67;;;1.80;;
86116;SDS011;76770;0.000;0.000;2024-03-23T05:38:29;3.33;;;1.90;;
86116;SDS011;76770;0.000;0.000;2024-03-23T05:40:59;2.60;;;1.95;;
86116;SDS011;76770;0.000;0.000;2024-03-23T05:43:25;2.80;;;1.90;;
86116;SDS011;76770;0.000;0.000;2024-03-23T05:45:54;4.20;;;1.80;;
86116;SDS011;76770;0.000;0.000;2024-03-23T05:48:21;2.90;;;1.90;;
86116;SDS011;76770;0.000;0.000;2024-03-23T05:50:47;2.67;;;1.80;;
86116;SDS011;76770;0.000;0.000;2024-03-23T05:53:14;2.15;;;1.60;;
86116;SDS011;76770;0.000;0.000;2024-03-23T05:55:40;2.97;;;1.73;;
86116;SDS011;76770;0.000;0.000;2024-03-23T05:58:06;2.67;;;1.63;;
86116;SDS011;76770;0.000;0.000;2024-03-23T06:00:32;2.20;;;1.60;;
86116;SDS011;76770;0.000;0.000;2024-03-23T06:02:58;2.08;;;1.50;;
86116;SDS011;76770;0.000;0.000;2024-03-23T06:05:24;2.63;;;1.70;;
86116;SDS011;76770;0.000;0.000;2024-03-23T06:07:50;2.43;;;1.63;;
86116;SDS011;76770;0.000;0.000;2024-03-23T06:10:16;2.75;;;1.73;;
86116;SDS011;76770;0.000;0.000;2024-03-23T06:12:42;4.35;;;2.00;;
86116;SDS011;76770;0.000;0.000;2024-03-23T06:15:08;2.83;;;1.93;;
86116;SDS011;76770;0.000;0.000;2024-03-23T06:17:38;3.40;;;1.88;;
86116;SDS011;76770;0.000;0.000;2024-03-23T06:20:05;3.60;;;1.83;;
86116;SDS011;76770;0.000;0.000;2024-03-23T06:22:31;4.37;;;2.00;;
86116;SDS011;76770;0.000;0.000;2024-03-23T06:24:57;4.18;;;2.10;;
86116;SDS011;76770;0.000;0.000;2024-03-23T06:27:23;3.70;;;2.10;;
86116;SDS011;76770;0.000;0.000;2024-03-23T06:29:49;4.75;;;2.00;;
86116;SDS011;76770;0.000;0.000;2024-03-23T06:32:15;2.65;;;1.77;;
86116;SDS011;76770;0.000;0.000;2024-03-23T06:34:41;3.47;;;2.00;;
86116;SDS011;76770;0.000;0.000;2024-03-23T06:37:07;3.15;;;1.90;;
86116;SDS011;76770;0.000;0.000;2024-03-23T06:39:35;3.25;;;1.85;;
86116;SDS011;76770;0.000;0.000;2024-03-23T06:42:01;2.97;;;1.90;;
86116;SDS011;76770;0.000;0.000;2024-03-23T06:44:27;3.05;;;1.70;;
86116;SDS011;76770;0.000;0.000;2024-03-23T06:46:54;2.95;;;1.80;;
86116;SDS011;76770;0.000;0.000;2024-03-23T06:49:20;2.88;;;1.90;;
86116;SDS011;76770;0.000;0.000;2024-03-23T06:51:46;3.90;;;2.40;;
86116;SDS011;76770;0.000;0.000;2024-03-23T06:54:12;5.50;;;2.27;;
86116;SDS011;76770;0.000;0.000;2024-03-23T06:56:38;3.67;;;2.22;;
86116;SDS011;76770;0.000;0.000;2024-03-23T06:59:04;6.15;;;2.10;;
86116;SDS011;76770;0.000;0.000;2024-03-23T07:01:30;4.68;;;2.30;;
86116;SDS011;76770;0.000;0.000;2024-03-23T07:03:56;4.50;;;2.80;;
86116;SDS011;76770;0.000;0.000;2024-03-23T07:06:22;4.50;;;2.53;;
86116;SDS011;76770;0.000;0.000;2024-03-23T07:08:48;4.75;;;2.40;;
86116;SDS011;76770;0.000;0.000;2024-03-23T07:11:21;4.28;;;2.40;;
86116;SDS011;76770;0.000;0.000;2024-03-23T07:13:50;4.20;;;2.53;;
86116;SDS011;76770;0.000;0.000;2024-03-23T07:16:17;5.15;;;2.40;;
86116;SDS011;76770;0.000;0.000;2024-03-23T07:18:43;3.92;;;2.28;;
86116;SDS011;76770;0.000;0.000;2024-03-23T07:21:09;3.55;;;2.10;;
86116;SDS011;76770;0.000;0.000;2024-03-23T07:23:35;3.78;;;2.15;;
86116;SDS011;76770;0.000;0.000;2024-03-23T07:26:03;4.32;;;2.30;;
86116;SDS011;76770;0.000;0.000;2024-03-23T07:28:29;3.60;;;2.10;;
86116;SDS011;76770;0.000;0.000;2024-03-23T07:33:28;3.20;;;2.20;;
86116;SDS011;76770;0.000;0.000;2024-03-23T07:35:55;3.28;;;2.08;;
86116;SDS011;76770;0.000;0.000;2024-03-23T07:38:21;3.83;;;2.20;;
86116;SDS011;76770;0.000;0.000;2024-03-23T07:40:47;3.08;;;2.03;;
86116;SDS011;76770;0.000;0.000;2024-03-23T07:43:20;3.35;;;2.00;;
86116;SDS011;76770;0.000;0.000;2024-03-23T07:45:51;3.45;;;2.08;;
86116;SDS011;76770;0.000;0.000;2024-03-23T07:48:17;3.38;;;2.10;;
86116;SDS011;76770;0.000;0.000;2024-03-23T07:50:43;3.70;;;2.00;;
86116;SDS011;76770;0.000;0.000;2024-03-23T07:53:09;4.35;;;2.50;;
86116;SDS011;76770;0.000;0.000;2024-03-23T07:55:35;3.10;;;2.17;;
86116;SDS011;76770;0.000;0.000;2024-03-23T07:58:01;3.50;;;2.40;;
86116;SDS011;76770;0.000;0.000;2024-03-23T08:00:27;3.30;;;2.20;;
86116;SDS011;76770;0.000;0.000;2024-03-23T08:02:53;3.28;;;2.17;;
86116;SDS011;76770;0.000;0.000;2024-03-23T08:05:19;3.90;;;2.10;;
86116;SDS011;76770;0.000;0.000;2024-03-23T08:07:46;3.40;;;2.20;;
86116;SDS011;76770;0.000;0.000;2024-03-23T08:10:12;2.97;;;2.00;;
86116;SDS011;76770;0.000;0.000;2024-03-23T08:12:38;3.20;;;2.10;;
86116;SDS011;76770;0.000;0.000;2024-03-23T08:15:04;3.33;;;1.90;;
86116;SDS011;76770;0.000;0.000;2024-03-23T08:17:30;3.70;;;2.28;;
86116;SDS011;76770;0.000;0.000;2024-03-23T08:19:56;3.13;;;2.05;;
86116;SDS011;76770;0.000;0.000;2024-03-23T08:22:22;2.88;;;1.98;;
86116;SDS011;76770;0.000;0.000;2024-03-23T08:24:48;3.00;;;2.08;;
86116;SDS011;76770;0.000;0.000;2024-03-23T08:27:14;5.00;;;2.10;;
86116;SDS011;76770;0.000;0.000;2024-03-23T08:29:40;3.83;;;2.08;;
86116;SDS011;76770;0.000;0.000;2024-03-23T08:32:06;3.30;;;2.00;;
86116;SDS011;76770;0.000;0.000;2024-03-23T08:34:32;4.28;;;2.20;;
86116;SDS011;76770;0.000;0.000;2024-03-23T08:36:58;3.85;;;2.35;;
86116;SDS011;76770;0.000;0.000;2024-03-23T08:39:24;3.43;;;2.20;;
86116;SDS011;76770;0.000;0.000;2024-03-23T08:41:50;3.45;;;2.10;;
86116;SDS011;76770;0.000;0.000;2024-03-23T08:44:16;3.92;;;2.28;;
86116;SDS011;76770;0.000;0.000;2024-03-23T08:46:42;3.63;;;2.25;;
86116;SDS011;76770;0.000;0.000;2024-03-23T08:49:08;3.88;;;2.20;;
86116;SDS011;76770;0.000;0.000;2024-03-23T08:51:34;3.60;;;2.20;;
86116;SDS011;76770;0.000;0.000;2024-03-23T08:54:00;3.42;;;2.10;;
86116;SDS011;76770;0.000;0.000;2024-03-23T08:56:26;3.17;;;2.10;;
86116;SDS011;76770;0.000;0.000;2024-03-23T08:58:52;3.22;;;2.08;;
86116;SDS011;76770;0.000;0.000;2024-03-23T09:01:18;3.08;;;2.10;;
86116;SDS011;76770;0.000;0.000;2024-03-23T09:03:44;4.43;;;2.30;;
86116;SDS011;76770;0.000;0.000;2024-03-23T09:06:11;3.70;;;1.95;;
86116;SDS011;76770;0.000;0.000;2024-03-23T09:08:37;3.50;;;2.30;;
86116;SDS011;76770;0.000;0.000;2024-03-23T09:11:04;4.33;;;2.60;;
86116;SDS011;76770;0.000;0.000;2024-03-23T09:13:34;6.22;;;3.40;;
86116;SDS011;76770;0.000;0.000;2024-03-23T09:16:00;6.95;;;4.35;;
86116;SDS011;76770;0.000;0.000;2024-03-23T09:18:26;9.18;;;5.18;;
86116;SDS011;76770;0.000;0.000;2024-03-23T09:20:52;10.98;;;5.40;;
86116;SDS011;76770;0.000;0.000;2024-03-23T09:23:21;11.15;;;6.20;;
86116;SDS011;76770;0.000;0.000;2024-03-23T09:25:47;12.82;;;7.38;;
86116;SDS011;76770;0.000;0.000;2024-03-23T09:28:13;15.07;;;8.18;;
86116;SDS011;76770;0.000;0.000;2024-03-23T09:30:39;17.27;;;8.90;;
86116;SDS011;76770;0.000;0.000;2024-03-23T09:33:09;18.35;;;9.90;;
86116;SDS011;76770;0.000;0.000;2024-03-23T09:35:41;21.80;;;11.27;;
86116;SDS011;76770;0.000;0.000;2024-03-23T09:38:07;24.65;;;13.68;;
86116;SDS011;76770;0.000;0.000;2024-03-23T09:40:34;32.72;;;15.65;;
86116;SDS011;76770;0.000;0.000;2024-03-23T09:43:00;32.83;;;15.75;;
86116;SDS011;76770;0.000;0.000;2024-03-23T09:45:27;29.85;;;15.70;;
86116;SDS011;76770;0.000;0.000;2024-03-23T09:47:54;31.17;;;15.50;;
86116;SDS011;76770;0.000;0.000;2024-03-23T09:50:20;28.80;;;15.63;;
86116;SDS011;76770;0.000;0.000;2024-03-23T09:52:46;32.85;;;16.80;;
86116;SDS011;76770;0.000;0.000;2024-03-23T09:55:13;36.75;;;18.58;;
86116;SDS011;76770;0.000;0.000;2024-03-23T09:57:39;43.05;;;22.10;;
86116;SDS011;76770;0.000;0.000;2024-03-23T10:00:05;45.20;;;23.40;;
86116;SDS011;76770;0.000;0.000;2024-03-23T10:02:32;49.50;;;24.17;;
86116;SDS011;76770;0.000;0.000;2024-03-23T10:04:59;49.10;;;25.77;;
86116;SDS011;76770;0.000;0.000;2024-03-23T10:07:25;52.05;;;26.95;;
86116;SDS011;76770;0.000;0.000;2024-03-23T10:09:53;55.70;;;27.95;;
86116;SDS011;76770;0.000;0.000;2024-03-23T10:12:20;57.65;;;28.70;;
86116;SDS011;76770;0.000;0.000;2024-03-23T10:14:46;57.03;;;29.13;;
86116;SDS011;76770;0.000;0.000;2024-03-23T10:19:47;60.40;;;31.30;;
86116;SDS011;76770;0.000;0.000;2024-03-23T10:22:17;58.45;;;31.05;;
86116;SDS011;76770;0.000;0.000;2024-03-23T10:24:43;62.08;;;31.50;;
86116;SDS011;76770;0.000;0.000;2024-03-23T10:27:09;59.63;;;31.93;;
86116;SDS011;76770;0.000;0.000;2024-03-23T10:29:35;60.15;;;31.80;;
86116;SDS011;76770;0.000;0.000;2024-03-23T10:32:10;59.03;;;31.67;;
86116;SDS011;76770;0.000;0.000;2024-03-23T10:34:37;57.88;;;29.45;;
86116;SDS011;76770;0.000;0.000;2024-03-23T10:37:04;34.60;;;16.77;;
86116;SDS011;76770;0.000;0.000;2024-03-23T10:39:37;20.65;;;8.93;;
86116;SDS011;76770;0.000;0.000;2024-03-23T10:42:04;13.43;;;7.32;;
86116;SDS011;76770;0.000;0.000;2024-03-23T10:44:30;11.93;;;6.10;;
86116;SDS011;76770;0.000;0.000;2024-03-23T10:47:00;8.95;;;4.10;;
86116;SDS011;76770;0.000;0.000;2024-03-23T10:49:26;9.18;;;3.50;;
86116;SDS011;76770;0.000;0.000;2024-03-23T10:51:54;8.27;;;3.47;;
86116;SDS011;76770;0.000;0.000;2024-03-23T10:54:20;9.77;;;3.33;;
86116;SDS011;76770;0.000;0.000;2024-03-23T10:56:47;7.82;;;3.65;;
86116;SDS011;76770;0.000;0.000;2024-03-23T10:59:16;7.75;;;3.30;;
86116;SDS011;76770;0.000;0.000;2024-03-23T11:01:57;7.03;;;3.20;;
86116;SDS011;76770;0.000;0.000;2024-03-23T11:04:30;5.97;;;2.97;;
86116;SDS011;76770;0.000;0.000;2024-03-23T11:06:56;7.25;;;3.20;;
86116;SDS011;76770;0.000;0.000;2024-03-23T11:12:17;6.40;;;2.92;;
86116;SDS011;76770;0.000;0.000;2024-03-23T11:14:43;8.73;;;3.03;;
86116;SDS011;76770;0.000;0.000;2024-03-23T11:17:10;4.78;;;2.88;;
86116;SDS011;76770;0.000;0.000;2024-03-23T11:19:36;5.93;;;3.00;;
86116;SDS011;76770;0.000;0.000;2024-03-23T11:22:03;6.97;;;3.00;;
86116;SDS011;76770;0.000;0.000;2024-03-23T11:24:30;8.20;;;3.30;;
86116;SDS011;76770;0.000;0.000;2024-03-23T11:26:56;5.65;;;2.83;;
86116;SDS011;76770;0.000;0.000;2024-03-23T11:29:25;8.05;;;2.88;;
86116;SDS011;76770;0.000;0.000;2024-03-23T11:31:52;6.13;;;3.00;;
86116;SDS011;76770;0.000;0.000;2024-03-23T11:34:18;5.22;;;3.25;;
86116;SDS011;76770;0.000;0.000;2024-03-23T11:36:45;8.75;;;3.63;;
86116;SDS011;76770;0.000;0.000;2024-03-23T11:39:12;6.88;;;3.30;;
86116;SDS011;76770;0.000;0.000;2024-03-23T11:41:48;7.90;;;3.30;;
86116;SDS011;76770;0.000;0.000;2024-03-23T11:44:21;7.10;;;2.90;;
86116;SDS011;76770;0.000;0.000;2024-03-23T11:46:47;6.32;;;3.10;;
86116;SDS011;76770;0.000;0.000;2024-03-23T11:49:23;6.95;;;3.08;;
86116;SDS011;76770;0.000;0.000;2024-03-23T11:51:49;7.00;;;3.40;;
86116;SDS011;76770;0.000;0.000;2024-03-23T11:54:16;7.38;;;3.40;;
86116;SDS011;76770;0.000;0.000;2024-03-23T11:57:01;6.22;;;3.60;;
86116;SDS011;76770;0.000;0.000;2024-03-23T12:01:58;7.38;;;3.58;;
86116;SDS011;76770;0.000;0.000;2024-03-23T12:04:27;6.32;;;3.20;;
86116;SDS011;76770;0.000;0.000;2024-03-23T12:07:12;6.82;;;3.25;;
86116;SDS011;76770;0.000;0.000;2024-03-23T12:09:38;7.05;;;3.28;;
86116;SDS011;76770;0.000;0.000;2024-03-23T12:12:14;6.18;;;2.90;;
86116;SDS011;76770;0.000;0.000;2024-03-23T12:14:41;6.78;;;3.50;;
86116;SDS011;76770;0.000;0.000;2024-03-23T12:17:12;7.60;;;3.10;;
86116;SDS011;76770;0.000;0.000;2024-03-23T12:19:38;6.20;;;3.20;;
86116;SDS011;76770;0.000;0.000;2024-03-23T12:22:05;8.23;;;3.10;;
86116;SDS011;76770;0.000;0.000;2024-03-23T12:24:32;6.15;;;3.00;;
86116;SDS011;76770;0.000;0.000;2024-03-23T12:27:04;7.93;;;3.50;;
86116;SDS011;76770;0.000;0.000;2024-03-23T12:29:30;9.70;;;3.72;;
86116;SDS011;76770;0.000;0.000;2024-03-23T12:32:00;14.77;;;5.10;;
86116;SDS011;76770;0.000;0.000;2024-03-23T12:34:26;8.45;;;4.57;;
86116;SDS011;76770;0.000;0.000;2024-03-23T12:36:52;9.07;;;4.70;;
86116;SDS011;76770;0.000;0.000;2024-03-23T12:39:18;11.10;;;5.20;;
86116;SDS011;76770;0.000;0.000;2024-03-23T12:41:46;10.70;;;4.65;;
86116;SDS011;76770;0.000;0.000;2024-03-23T12:44:12;11.07;;;4.90;;
86116;SDS011;76770;0.000;0.000;2024-03-23T12:46:38;9.03;;;5.10;;
86116;SDS011;76770;0.000;0.000;2024-03-23T12:49:04;10.48;;;5.70;;
86116;SDS011;76770;0.000;0.000;2024-03-23T12:51:31;10.65;;;5.30;;
86116;SDS011;76770;0.000;0.000;2024-03-23T12:53:57;8.95;;;5.72;;
86116;SDS011;76770;0.000;0.000;2024-03-23T12:56:23;10.48;;;5.40;;
86116;SDS011;76770;0.000;0.000;2024-03-23T12:58:49;11.00;;;5.60;;
86116;SDS011;76770;0.000;0.000;2024-03-23T13:01:19;9.02;;;5.15;;
86116;SDS011;76770;0.000;0.000;2024-03-23T13:03:48;13.43;;;6.20;;
86116;SDS011;76770;0.000;0.000;2024-03-23T13:06:15;14.48;;;7.20;;
86116;SDS011;76770;0.000;0.000;2024-03-23T13:08:41;11.23;;;6.30;;
86116;SDS011;76770;0.000;0.000;2024-03-23T13:11:08;10.52;;;6.15;;
86116;SDS011;76770;0.000;0.000;2024-03-23T13:13:35;10.73;;;5.80;;
86116;SDS011;76770;0.000;0.000;2024-03-23T13:16:01;8.65;;;5.20;;
86116;SDS011;76770;0.000;0.000;2024-03-23T13:18:28;11.50;;;5.80;;
86116;SDS011;76770;0.000;0.000;2024-03-23T13:20:54;11.27;;;5.80;;
86116;SDS011;76770;0.000;0.000;2024-03-23T13:23:20;12.90;;;6.30;;
86116;SDS011;76770;0.000;0.000;2024-03-23T13:25:53;9.30;;;5.38;;
86116;SDS011;76770;0.000;0.000;2024-03-23T13:28:19;8.20;;;5.25;;
86116;SDS011;76770;0.000;0.000;2024-03-23T13:30:55;12.77;;;5.40;;
86116;SDS011;76770;0.000;0.000;2024-03-23T13:33:21;10.85;;;5.30;;
86116;SDS011;76770;0.000;0.000;2024-03-23T13:35:53;10.02;;;5.40;;
86116;SDS011;76770;0.000;0.000;2024-03-23T13:38:23;11.57;;;4.97;;
86116;SDS011;76770;0.000;0.000;2024-03-23T13:40:58;12.02;;;5.22;;
86116;SDS011;76770;0.000;0.000;2024-03-23T13:43:25;10.60;;;5.03;;
86116;SDS011;76770;0.000;0.000;2024-03-23T13:45:54;7.88;;;4.70;;
86116;SDS011;76770;0.000;0.000;2024-03-23T13:48:21;8.10;;;4.72;;
86116;SDS011;76770;0.000;0.000;2024-03-23T13:50:47;8.40;;;4.65;;
86116;SDS011;76770;0.000;0.000;2024-03-23T13:53:14;7.40;;;4.32;;
86116;SDS011;76770;0.000;0.000;2024-03-23T13:55:49;6.83;;;4.20;;
86116;SDS011;76770;0.000;0.000;2024-03-23T13:58:15;6.63;;;3.90;;
86116;SDS011;76770;0.000;0.000;2024-03-23T14:00:41;7.60;;;4.00;;
86116;SDS011;76770;0.000;0.000;2024-03-23T14:03:08;8.03;;;4.20;;
86116;SDS011;76770;0.000;0.000;2024-03-23T14:05:34;9.60;;;3.80;;
86116;SDS011;76770;0.000;0.000;2024-03-23T14:08:00;6.82;;;3.95;;
86116;SDS011;76770;0.000;0.000;2024-03-23T14:10:26;6.32;;;3.70;;
86116;SDS011;76770;0.000;0.000;2024-03-23T14:12:52;6.28;;;3.58;;
86116;SDS011;76770;0.000;0.000;2024-03-23T14:15:18;6.60;;;3.38;;
86116;SDS011;76770;0.000;0.000;2024-03-23T14:17:44;6.50;;;3.40;;
86116;SDS011;76770;0.000;0.000;2024-03-23T14:20:11;5.90;;;2.95;;
86116;SDS011;76770;0.000;0.000;2024-03-23T14:22:38;5.43;;;3.00;;
86116;SDS011;76770;0.000;0.000;2024-03-23T14:25:06;7.22;;;2.92;;
86116;SDS011;76770;0.000;0.000;2024-03-23T14:27:32;6.57;;;2.70;;
86116;SDS011;76770;0.000;0.000;2024-03-23T14:30:02;5.20;;;2.90;;
86116;SDS011;76770;0.000;0.000;2024-03-23T14:32:28;5.27;;;2.70;;
86116;SDS011;76770;0.000;0.000;2024-03-23T14:34:57;4.78;;;2.40;;
86116;SDS011;76770;0.000;0.000;2024-03-23T14:37:23;5.47;;;2.67;;
86116;SDS011;76770;0.000;0.000;2024-03-23T14:39:49;4.35;;;2.30;;
86116;SDS011;76770;0.000;0.000;2024-03-23T14:42:15;4.13;;;2.40;;
86116;SDS011;76770;0.000;0.000;2024-03-23T14:44:41;4.03;;;2.25;;
86116;SDS011;76770;0.000;0.000;2024-03-23T14:47:07;5.13;;;2.22;;
86116;SDS011;76770;0.000;0.000;2024-03-23T14:49:33;5.70;;;2.40;;
86116;SDS011;76770;0.000;0.000;2024-03-23T14:51:59;4.28;;;2.20;;
86116;SDS011;76770;0.000;0.000;2024-03-23T14:54:25;5.10;;;2.20;;
86116;SDS011;76770;0.000;0.000;2024-03-23T14:56:51;5.55;;;1.90;;
86116;SDS011;76770;0.000;0.000;2024-03-23T14:59:17;4.50;;;2.10;;
86116;SDS011;76770;0.000;0.000;2024-03-23T15:01:44;4.53;;;2.10;;
86116;SDS011;76770;0.000;0.000;2024-03-23T15:04:10;4.47;;;2.07;;
86116;SDS011;76770;0.000;0.000;2024-03-23T15:06:36;5.55;;;2.10;;
86116;SDS011;76770;0.000;0.000;2024-03-23T15:09:02;4.63;;;1.98;;
86116;SDS011;76770;0.000;0.000;2024-03-23T15:11:33;3.92;;;1.90;;
86116;SDS011;76770;0.000;0.000;2024-03-23T15:13:59;3.58;;;1.88;;
86116;SDS011;76770;0.000;0.000;2024-03-23T15:16:25;4.72;;;1.90;;
86116;SDS011;76770;0.000;0.000;2024-03-23T15:18:52;3.83;;;1.80;;
86116;SDS011;76770;0.000;0.000;2024-03-23T15:21:18;5.27;;;1.90;;
86116;SDS011;76770;0.000;0.000;2024-03-23T15:23:46;3.87;;;1.70;;
86116;SDS011;76770;0.000;0.000;2024-03-23T15:26:12;3.50;;;1.90;;
86116;SDS011;76770;0.000;0.000;2024-03-23T15:28:38;4.20;;;1.70;;
86116;SDS011;76770;0.000;0.000;2024-03-23T15:31:23;3.57;;;1.80;;
86116;SDS011;76770;0.000;0.000;2024-03-23T15:33:49;4.15;;;1.70;;
86116;SDS011;76770;0.000;0.000;2024-03-23T15:36:15;4.90;;;1.92;;
86116;SDS011;76770;0.000;0.000;2024-03-23T15:38:42;3.50;;;1.73;;
86116;SDS011;76770;0.000;0.000;2024-03-23T15:41:08;4.53;;;1.80;;
86116;SDS011;76770;0.000;0.000;2024-03-23T15:43:34;3.45;;;1.60;;
86116;SDS011;76770;0.000;0.000;2024-03-23T15:46:01;3.40;;;1.70;;
86116;SDS011;76770;0.000;0.000;2024-03-23T15:48:28;3.65;;;1.60;;
86116;SDS011;76770;0.000;0.000;2024-03-23T15:50:55;3.30;;;1.70;;
86116;SDS011;76770;0.000;0.000;2024-03-23T15:53:21;4.07;;;1.70;;
86116;SDS011;76770;0.000;0.000;2024-03-23T15:55:57;2.40;;;1.50;;
86116;SDS011;76770;0.000;0.000;2024-03-23T15:58:23;3.67;;;1.57;;